Terminal Aerodrome Forecast
Issued by NWS Albany, NY

Home | Current Version | Previous Version | Text Only | Print | Product List | Glossary On
Versions: 1 2 3 4 5 6 7 8 9 10 11 12 13 14 15 16 17 18 19 20 21 22 23 24 25 26 27
000
FTUS41 KALY 111132
TAFALB
TAF
KALB 111132Z 1112/1212 19007KT P6SM SCT040 BKN080
     FM111400 25008KT P6SM SCT025 BKN045
     FM112100 25008KT P6SM SCT025 SCT200
     FM120300 15005KT P6SM VCSH SCT025 BKN050 OVC100
     FM120500 14004KT 4SM -SN OVC040
     FM120900 10004KT 2SM -SN OVC025=

USA.gov is the U.S. government's official web portal to all federal, state and local government web resources and services.